Francis Creek, Wisconsin
Current Conditions -  °F | °C
As of 9:56 AM on Thursday 30 Oct 2014 (Local Time) from KMTW Reporting Station
Overcast Overcast  
Wind Chill: 41°   Ceiling: 10000
Heat Index: 45°   Visibility: 10mi
Dew Point: 36°   Wind: 7mph
Humidity: 71%   Direction: 220°SW
Pressure: 30.09"   Gusts: NA
Location:  44.2°N, 87.72°W
Report Text: KMTW 301456Z AUTO 22006KT 10SM OVC100 07/02 A3009 RMK AO2 SLP215 T00720022 58004
Loading
Personal Weather Stations






























Interactive Weather Map
Tropical Storm Tracking
New forecast layout! Learn more

10-Day Weather Forecast

Advertisements
Track Severe Weather on mobile